Terminal Aerodrome Forecast
Issued by NWS Flagstaff, AZ

Home | Current Version | Previous Version | Text Only | Print | Product List | Glossary On
Versions: 1 2 3 4 5 6 7 8 9 10 11 12 13 14 15 16
000
FTUS45 KFGZ 262300
TAFINW
TAF
KINW 262338Z 2700/2724 32010KT P6SM VCSH SCT040 BKN060
      TEMPO 2700/2701 VRB10G20KT 5SM -SHRA BKN040
     FM270200 VRB05KT P6SM SCT060
     FM272000 32008KT P6SM SCT080=

USA.gov is the U.S. government's official web portal to all federal, state and local government web resources and services.